Time;durP1;ratioP1;P1;durP2;ratioP2;P2;SDS_P1;SDS_P2;PMS_P1;PMS_P2;Temp;Humidity;BMP_temperature;BMP_pressure;BME280_temperature;BME280_humidity;BME280_pressure;Samples;Min_cycle;Max_cycle;Signal;HPM_P1;HPM_P2
2022/10/22 00:01:19;;;;;;;21.50;10.18;;;12.60;99.90;;;;;;7405481;19;19922;-86
2022/10/22 00:03:51;;;;;;;18.25;8.40;;;12.60;99.90;;;;;;7403982;19;20295;-86
2022/10/22 00:06:20;;;;;;;20.15;11.63;;;12.60;99.90;;;;;;7407950;19;20067;-86
2022/10/22 00:08:49;;;;;;;17.38;10.40;;;12.60;99.90;;;;;;7406520;19;20340;-86
2022/10/22 00:11:20;;;;;;;15.90;10.35;;;12.60;99.90;;;;;;7403983;19;19915;-86
2022/10/22 00:13:50;;;;;;;19.58;10.57;;;12.60;99.90;;;;;;7407579;19;19929;-86
2022/10/22 00:16:19;;;;;;;18.83;10.23;;;12.60;99.90;;;;;;7408593;19;19978;-86
2022/10/22 00:18:50;;;;;;;15.10;9.38;;;12.50;99.90;;;;;;7409907;19;19918;-86
2022/10/22 00:21:19;;;;;;;17.00;10.35;;;12.60;99.90;;;;;;7410577;19;19932;-86
2022/10/22 00:23:48;;;;;;;20.15;11.05;;;12.50;99.90;;;;;;7411505;19;19985;-86
2022/10/22 00:26:17;;;;;;;20.40;9.88;;;12.50;99.90;;;;;;7409511;19;20276;-85
2022/10/22 00:28:46;;;;;;;22.42;11.45;;;12.50;99.90;;;;;;7408256;19;19926;-86
2022/10/22 00:31:15;;;;;;;19.27;10.32;;;12.50;99.90;;;;;;7409646;19;19921;-86
2022/10/22 00:33:44;;;;;;;17.70;9.70;;;12.50;99.90;;;;;;7410517;19;20789;-85
2022/10/22 00:36:15;;;;;;;18.15;10.15;;;12.50;99.90;;;;;;7409551;19;19945;-87
2022/10/22 00:38:45;;;;;;;16.83;9.07;;;12.50;99.90;;;;;;7412451;19;20252;-86
2022/10/22 00:41:13;;;;;;;14.98;9.55;;;12.50;99.90;;;;;;7409246;19;19978;-86
2022/10/22 00:43:56;;;;;;;16.77;9.23;;;12.50;99.90;;;;;;7408158;19;19929;-86
2022/10/22 00:46:25;;;;;;;15.88;10.60;;;12.50;99.90;;;;;;7411789;19;19926;-86
2022/10/22 00:48:56;;;;;;;17.48;9.43;;;12.40;99.90;;;;;;7409000;19;19915;-86
2022/10/22 00:51:31;;;;;;;19.88;10.00;;;12.40;99.90;;;;;;7409287;19;19911;-86
2022/10/22 00:54:06;;;;;;;17.33;9.68;;;12.40;99.90;;;;;;7411828;19;19919;-87
2022/10/22 00:56:35;;;;;;;17.63;8.30;;;12.40;99.90;;;;;;7407567;19;19919;-86
2022/10/22 00:59:05;;;;;;;15.82;8.85;;;12.40;99.90;;;;;;7409141;19;19918;-86
2022/10/22 01:01:34;;;;;;;15.93;9.68;;;12.40;99.90;;;;;;7412219;19;20331;-87
2022/10/22 01:04:03;;;;;;;16.05;8.38;;;12.40;99.90;;;;;;7410451;19;19923;-87
2022/10/22 01:06:35;;;;;;;14.43;8.38;;;12.40;99.90;;;;;;7412280;19;19926;-86
2022/10/22 01:09:15;;;;;;;14.85;7.72;;;12.40;99.90;;;;;;7411242;19;20337;-87
2022/10/22 01:11:54;;;;;;;11.25;7.28;;;12.40;99.90;;;;;;7410289;19;19929;-87
2022/10/22 01:14:27;;;;;;;14.27;7.53;;;12.40;99.90;;;;;;7410255;19;19915;-86
2022/10/22 01:17:02;;;;;;;11.75;7.18;;;12.40;99.90;;;;;;7409203;19;19923;-86
2022/10/22 01:19:43;;;;;;;15.20;8.85;;;12.40;99.90;;;;;;7409562;19;19943;-86
2022/10/22 01:22:22;;;;;;;14.10;8.77;;;12.40;99.90;;;;;;7410089;19;19922;-86
2022/10/22 01:25:07;;;;;;;13.20;8.65;;;12.40;99.90;;;;;;7406456;19;19939;-85
2022/10/22 01:27:45;;;;;;;14.65;7.30;;;12.40;99.90;;;;;;7412303;19;19923;-85
2022/10/22 01:30:17;;;;;;;11.40;7.35;;;12.30;99.90;;;;;;7409890;19;19921;-85
2022/10/22 01:32:51;;;;;;;15.77;7.38;;;12.30;99.90;;;;;;7408175;19;19914;-86
2022/10/22 01:35:26;;;;;;;12.48;7.55;;;12.30;99.90;;;;;;7407974;19;19919;-86
2022/10/22 01:37:58;;;;;;;24.50;6.63;;;12.30;99.90;;;;;;7405860;19;19922;-86
2022/10/22 01:40:28;;;;;;;14.05;7.30;;;12.30;99.90;;;;;;7411096;19;19918;-86
2022/10/22 01:42:59;;;;;;;14.02;7.18;;;12.20;99.90;;;;;;7408006;19;19915;-86
2022/10/22 01:45:34;;;;;;;14.07;8.45;;;12.20;99.90;;;;;;7410691;19;19923;-86
2022/10/22 01:48:17;;;;;;;13.73;9.48;;;12.20;99.90;;;;;;7410993;19;19918;-86
2022/10/22 01:51:03;;;;;;;;;;;12.20;99.90;;;;;;7409479;19;19926;-86
2022/10/22 01:53:42;;;;;;;12.90;7.00;;;12.20;99.90;;;;;;7407417;19;20284;-86
2022/10/22 01:56:29;;;;;;;12.63;7.47;;;12.30;99.90;;;;;;7408511;19;19929;-86
2022/10/22 01:59:06;;;;;;;11.43;7.70;;;12.30;99.90;;;;;;7411027;19;19914;-86
2022/10/22 02:01:44;;;;;;;15.57;9.18;;;12.30;99.90;;;;;;7406458;19;19918;-86
2022/10/22 02:04:18;;;;;;;12.10;7.45;;;12.30;99.90;;;;;;7408607;19;19930;-86
2022/10/22 02:06:49;;;;;;;13.70;7.38;;;12.20;99.90;;;;;;7406469;19;19974;-86
2022/10/22 02:09:21;;;;;;;12.73;7.30;;;12.30;99.90;;;;;;7409023;19;19922;-87
2022/10/22 02:11:51;;;;;;;12.98;6.45;;;12.30;99.90;;;;;;7410861;19;20279;-86
2022/10/22 02:14:22;;;;;;;12.85;7.18;;;12.30;99.90;;;;;;7408309;19;19918;-87
2022/10/22 02:16:55;;;;;;;12.52;7.50;;;12.30;99.90;;;;;;7410058;19;19921;-86
2022/10/22 02:19:28;;;;;;;13.57;8.30;;;12.30;99.90;;;;;;7406522;19;19923;-86
2022/10/22 02:21:57;;;;;;;14.43;6.55;;;12.30;99.90;;;;;;7408851;19;19919;-86
2022/10/22 02:24:26;;;;;;;15.40;7.50;;;12.30;99.90;;;;;;7408884;19;20467;-86
2022/10/22 02:27:06;;;;;;;15.30;7.43;;;12.30;99.90;;;;;;7404120;19;20317;-86
2022/10/22 02:29:40;;;;;;;14.82;7.63;;;12.20;99.90;;;;;;7405289;19;20229;-86
2022/10/22 02:32:17;;;;;;;13.48;7.22;;;12.20;99.90;;;;;;7406656;19;19907;-86
2022/10/22 02:34:48;;;;;;;14.18;7.20;;;12.10;99.90;;;;;;7407509;19;19914;-87
2022/10/22 02:37:18;;;;;;;13.90;7.10;;;12.00;99.90;;;;;;7405641;19;19922;-86
2022/10/22 02:39:48;;;;;;;11.60;6.55;;;11.90;99.90;;;;;;7404411;19;19918;-86
2022/10/22 02:42:19;;;;;;;15.80;10.65;;;11.90;99.90;;;;;;7403650;19;19930;-86
2022/10/22 02:44:48;;;;;;;16.67;7.18;;;11.80;99.90;;;;;;7408681;19;19922;-86
2022/10/22 02:47:20;;;;;;;11.35;6.35;;;11.80;99.90;;;;;;7405873;19;19910;-86
2022/10/22 02:49:49;;;;;;;14.93;7.15;;;11.70;99.90;;;;;;7406044;19;19925;-86
2022/10/22 02:52:17;;;;;;;18.55;8.02;;;11.70;99.90;;;;;;7407782;19;19918;-86
2022/10/22 02:54:46;;;;;;;13.93;6.38;;;11.60;99.90;;;;;;7406310;19;19919;-86
2022/10/22 02:57:15;;;;;;;15.07;6.13;;;11.60;99.90;;;;;;7404574;19;19914;-86
2022/10/22 02:59:44;;;;;;;16.20;8.50;;;11.60;99.90;;;;;;7407886;19;19921;-86
2022/10/22 03:02:13;;;;;;;15.07;7.68;;;11.50;99.90;;;;;;7405629;19;19911;-86
2022/10/22 03:04:44;;;;;;;15.27;8.30;;;11.50;99.90;;;;;;7407950;19;20324;-86
2022/10/22 03:07:13;;;;;;;13.70;8.48;;;11.60;99.90;;;;;;7408636;19;19914;-86
2022/10/22 03:09:42;;;;;;;12.95;7.05;;;11.60;99.90;;;;;;7409308;19;20276;-86
2022/10/22 03:12:11;;;;;;;14.27;8.77;;;11.50;99.90;;;;;;7407646;19;19923;-86
2022/10/22 03:14:40;;;;;;;16.33;8.75;;;11.60;99.90;;;;;;7407617;19;19922;-86
2022/10/22 03:17:10;;;;;;;11.85;7.07;;;11.50;99.90;;;;;;7404538;19;19942;-85
2022/10/22 03:19:39;;;;;;;13.05;7.32;;;11.50;99.90;;;;;;7404989;19;19943;-86
2022/10/22 03:22:15;;;;;;;13.45;7.68;;;11.60;99.90;;;;;;7408558;19;19966;-86
2022/10/22 03:24:45;;;;;;;;;;;11.60;99.90;;;;;;7406962;19;19918;-86
2022/10/22 03:27:18;;;;;;;14.65;6.47;;;11.50;99.90;;;;;;7404895;19;19918;-86
2022/10/22 03:29:48;;;;;;;12.23;7.28;;;11.40;99.90;;;;;;7403846;19;20345;-86
2022/10/22 03:32:17;;;;;;;;;;;11.40;99.90;;;;;;7409299;19;19946;-86
2022/10/22 03:34:45;;;;;;;14.98;7.80;;;11.40;99.90;;;;;;7405077;19;19915;-86
2022/10/22 03:37:17;;;;;;;17.40;8.63;;;11.40;99.90;;;;;;7403599;19;20742;-86
2022/10/22 03:39:46;;;;;;;13.40;8.25;;;11.50;99.90;;;;;;7403372;19;19915;-86
2022/10/22 03:42:16;;;;;;;15.32;9.23;;;11.50;99.90;;;;;;7408849;19;19918;-86
2022/10/22 03:44:45;;;;;;;14.65;8.23;;;11.50;99.90;;;;;;7403782;19;19927;-85
2022/10/22 03:47:14;;;;;;;15.82;8.07;;;11.50;99.90;;;;;;7404067;19;19925;-86
2022/10/22 03:49:43;;;;;;;14.85;8.02;;;11.50;99.90;;;;;;7401329;19;20333;-86
2022/10/22 03:52:14;;;;;;;13.40;6.78;;;11.50;99.90;;;;;;7408281;19;19919;-86
2022/10/22 03:54:46;;;;;;;18.92;8.88;;;11.60;99.90;;;;;;7405421;19;20304;-86
2022/10/22 03:57:15;;;;;;;13.98;7.32;;;11.60;99.90;;;;;;7403473;19;19925;-86
2022/10/22 03:59:46;;;;;;;13.40;7.80;;;11.70;99.90;;;;;;7403395;19;19919;-86
2022/10/22 04:02:16;;;;;;;12.05;6.38;;;11.70;99.90;;;;;;7406335;19;19926;-86
2022/10/22 04:04:44;;;;;;;13.50;7.55;;;11.70;99.90;;;;;;7403870;19;19929;-86
2022/10/22 04:07:13;;;;;;;13.95;7.88;;;11.70;99.90;;;;;;7406689;19;19922;-86
2022/10/22 04:09:45;;;;;;;11.00;5.05;;;11.70;99.90;;;;;;7402805;19;20268;-86
2022/10/22 04:12:14;;;;;;;13.45;6.97;;;11.70;99.90;;;;;;7406670;19;20352;-87
2022/10/22 04:14:42;;;;;;;16.63;6.82;;;11.70;99.90;;;;;;7403142;19;19919;-86
2022/10/22 04:17:12;;;;;;;11.27;6.35;;;11.60;99.90;;;;;;7403966;19;19914;-86
2022/10/22 04:19:41;;;;;;;12.27;7.47;;;11.60;99.90;;;;;;7405026;19;19919;-86
2022/10/22 04:22:10;;;;;;;14.02;7.63;;;11.60;99.90;;;;;;7404633;19;19914;-86
2022/10/22 04:24:39;;;;;;;10.98;7.10;;;11.60;99.90;;;;;;7406090;19;19929;-86
2022/10/22 04:27:10;;;;;;;16.80;8.63;;;11.50;99.90;;;;;;7404458;19;19939;-86
2022/10/22 04:29:39;;;;;;;13.35;8.10;;;11.60;99.90;;;;;;7402176;19;19945;-86
2022/10/22 04:32:08;;;;;;;15.38;7.05;;;11.60;99.90;;;;;;7402613;19;20569;-86
2022/10/22 04:34:37;;;;;;;12.23;6.68;;;11.60;99.90;;;;;;7402683;19;19977;-87
2022/10/22 04:37:06;;;;;;;11.32;6.32;;;11.60;99.90;;;;;;7402091;19;19914;-86
2022/10/22 04:39:35;;;;;;;14.85;7.28;;;11.50;99.90;;;;;;7404162;19;19923;-87
2022/10/22 04:42:04;;;;;;;17.83;7.78;;;11.50;99.90;;;;;;7403039;19;19939;-86
2022/10/22 04:44:36;;;;;;;12.02;6.72;;;11.60;99.90;;;;;;7399077;19;19926;-86
2022/10/22 04:47:05;;;;;;;13.00;7.35;;;11.60;99.90;;;;;;7399069;19;19922;-86
2022/10/22 04:49:34;;;;;;;11.93;7.97;;;11.60;99.90;;;;;;7401072;19;20253;-86
2022/10/22 04:52:02;;;;;;;17.20;8.52;;;11.60;99.90;;;;;;7397499;19;19914;-87
2022/10/22 04:54:31;;;;;;;14.23;7.97;;;11.60;99.90;;;;;;7395732;19;19914;-86
2022/10/22 04:57:01;;;;;;;13.80;7.93;;;11.60;99.90;;;;;;7397288;19;19966;-86
2022/10/22 04:59:29;;;;;;;14.73;7.35;;;11.60;99.90;;;;;;7394560;19;19982;-86
2022/10/22 05:02:01;;;;;;;14.50;7.57;;;11.60;99.90;;;;;;7410119;19;19922;-86
2022/10/22 05:04:30;;;;;;;12.25;6.85;;;11.60;99.90;;;;;;7408423;19;19929;-86
2022/10/22 05:06:59;;;;;;;14.80;6.95;;;11.60;99.90;;;;;;7412949;19;19947;-87
2022/10/22 05:09:30;;;;;;;16.08;8.27;;;11.50;99.90;;;;;;7408435;19;19937;-85
2022/10/22 05:11:59;;;;;;;13.88;7.20;;;11.60;99.90;;;;;;7412467;19;20344;-86
2022/10/22 05:14:28;;;;;;;13.48;7.07;;;11.60;99.90;;;;;;7408231;19;19915;-87
2022/10/22 05:16:57;;;;;;;17.92;8.63;;;11.60;99.90;;;;;;7412224;19;20336;-86
2022/10/22 05:19:32;;;;;;;15.13;8.43;;;11.60;99.90;;;;;;7407123;19;19923;-86
2022/10/22 05:22:03;;;;;;;13.80;8.45;;;11.60;99.90;;;;;;7408388;19;19922;-86
2022/10/22 05:24:35;;;;;;;14.80;7.82;;;11.60;99.90;;;;;;7409198;19;19925;-86
2022/10/22 05:27:04;;;;;;;12.90;8.02;;;11.60;99.90;;;;;;7410842;19;19982;-87
2022/10/22 05:29:33;;;;;;;12.10;6.85;;;11.60;99.90;;;;;;7405633;19;19982;-86
2022/10/22 05:32:02;;;;;;;17.20;9.32;;;11.60;99.90;;;;;;7410363;19;19937;-86
2022/10/22 05:34:35;;;;;;;13.75;7.22;;;11.70;99.90;;;;;;7411056;19;20351;-86
2022/10/22 05:37:05;;;;;;;17.77;8.18;;;11.60;99.90;;;;;;7407324;19;19922;-86
2022/10/22 05:39:35;;;;;;;14.73;7.88;;;11.60;99.90;;;;;;7405258;19;19933;-87
2022/10/22 05:42:04;;;;;;;17.10;8.20;;;11.70;99.90;;;;;;7406275;19;20451;-86
2022/10/22 05:44:33;;;;;;;13.88;8.18;;;11.70;99.90;;;;;;7408734;19;19933;-86
2022/10/22 05:47:02;;;;;;;12.32;7.90;;;11.70;99.90;;;;;;7400185;19;19918;-86
2022/10/22 05:49:34;;;;;;;19.58;8.45;;;11.70;99.90;;;;;;7409753;19;19922;-86
2022/10/22 05:52:02;;;;;;;14.73;8.57;;;11.80;99.90;;;;;;7407123;19;19930;-85
2022/10/22 05:54:31;;;;;;;14.02;7.78;;;11.80;99.90;;;;;;7405498;19;20324;-86
2022/10/22 05:57:00;;;;;;;17.98;8.77;;;11.80;99.90;;;;;;7401346;19;19930;-86
2022/10/22 05:59:29;;;;;;;14.82;8.88;;;11.80;99.90;;;;;;7406009;19;19929;-86
2022/10/22 06:01:58;;;;;;;16.98;8.98;;;11.80;99.90;;;;;;7409246;19;19947;-85
2022/10/22 06:04:27;;;;;;;19.85;9.80;;;11.80;99.90;;;;;;7409339;19;20254;-86
2022/10/22 06:06:59;;;;;;;16.77;8.38;;;11.80;99.90;;;;;;7407972;19;20509;-86
2022/10/22 06:09:30;;;;;;;17.13;8.35;;;11.80;99.90;;;;;;7411274;19;20297;-86
2022/10/22 06:12:00;;;;;;;17.48;9.13;;;11.80;99.90;;;;;;7405864;19;19937;-86
2022/10/22 06:14:31;;;;;;;14.80;8.05;;;11.80;99.90;;;;;;7407777;19;19915;-86
2022/10/22 06:17:01;;;;;;;16.38;9.35;;;11.80;99.90;;;;;;7406462;19;20333;-86
2022/10/22 06:19:31;;;;;;;20.17;9.80;;;11.80;99.90;;;;;;7404648;19;19922;-86
2022/10/22 06:22:03;;;;;;;12.50;6.40;;;11.90;99.90;;;;;;7407085;19;19926;-87
2022/10/22 06:24:32;;;;;;;15.77;7.90;;;11.90;99.90;;;;;;7406358;19;19917;-86
2022/10/22 06:27:01;;;;;;;15.65;8.30;;;11.90;99.90;;;;;;7406972;19;20064;-86
2022/10/22 06:29:30;;;;;;;16.50;8.40;;;11.90;99.90;;;;;;7404864;19;19977;-86
2022/10/22 06:31:58;;;;;;;17.20;8.32;;;12.00;99.90;;;;;;7408215;19;19933;-86
2022/10/22 06:34:27;;;;;;;9.38;4.22;;;11.90;99.90;;;;;;7403830;19;19918;-86
2022/10/22 06:36:56;;;;;;;18.65;7.65;;;12.00;99.90;;;;;;7406588;19;19923;-86
2022/10/22 06:39:28;;;;;;;15.80;8.32;;;12.10;99.90;;;;;;7405256;19;19917;-86
2022/10/22 06:41:57;;;;;;;15.65;8.75;;;12.10;99.90;;;;;;7409902;19;20346;-86
2022/10/22 06:44:26;;;;;;;15.40;8.15;;;12.00;99.90;;;;;;7408561;19;19922;-86
2022/10/22 06:46:55;;;;;;;16.13;9.45;;;12.10;99.90;;;;;;7405597;19;19925;-86
2022/10/22 06:49:24;;;;;;;17.35;7.90;;;12.10;99.90;;;;;;7405983;19;20338;-86
2022/10/22 06:51:54;;;;;;;17.98;8.05;;;12.10;99.90;;;;;;7408309;19;19915;-86
2022/10/22 06:54:23;;;;;;;16.65;8.35;;;12.10;99.90;;;;;;7408721;19;19922;-86
2022/10/22 06:56:55;;;;;;;16.65;8.52;;;12.20;99.90;;;;;;7405940;19;19915;-87
2022/10/22 06:59:24;;;;;;;16.73;8.90;;;12.20;99.90;;;;;;7403784;19;19932;-87
2022/10/22 07:01:52;;;;;;;15.60;7.70;;;12.30;99.90;;;;;;7405670;19;20252;-86
2022/10/22 07:04:21;;;;;;;16.63;6.55;;;12.40;99.90;;;;;;7407891;19;19982;-86
2022/10/22 07:06:50;;;;;;;16.10;7.72;;;12.40;99.90;;;;;;7409317;19;19978;-86
2022/10/22 07:09:19;;;;;;;12.55;7.45;;;12.50;99.90;;;;;;7405663;19;19914;-87
2022/10/22 07:11:48;;;;;;;15.38;8.30;;;12.60;99.90;;;;;;7405029;19;20328;-86
2022/10/22 07:14:19;;;;;;;17.35;8.35;;;12.70;99.90;;;;;;7407292;19;19932;-86
2022/10/22 07:16:48;;;;;;;13.52;6.38;;;13.00;99.90;;;;;;7405800;19;19919;-86
2022/10/22 07:19:17;;;;;;;17.38;7.55;;;13.70;99.90;;;;;;7403655;19;19923;-86
2022/10/22 07:21:47;;;;;;;13.73;6.38;;;14.60;99.90;;;;;;7407813;19;19986;-86
2022/10/22 07:24:16;;;;;;;16.60;7.97;;;15.30;99.90;;;;;;7404093;19;19928;-87
2022/10/22 07:26:44;;;;;;;11.85;6.72;;;15.50;99.90;;;;;;7404492;19;20340;-86
2022/10/22 07:29:14;;;;;;;13.90;6.50;;;15.10;99.90;;;;;;7403705;19;19927;-86
2022/10/22 07:31:46;;;;;;;16.67;7.32;;;14.60;99.90;;;;;;7404708;19;19927;-87
2022/10/22 07:34:15;;;;;;;13.32;6.68;;;14.30;99.90;;;;;;7405674;19;19925;-87
2022/10/22 07:36:44;;;;;;;15.63;7.07;;;14.10;99.90;;;;;;7407732;19;19952;-86
2022/10/22 07:39:13;;;;;;;10.93;5.75;;;13.90;99.90;;;;;;7403468;19;19914;-87
2022/10/22 07:41:42;;;;;;;11.13;6.70;;;13.80;99.90;;;;;;7407832;19;19915;-87
2022/10/22 07:44:10;;;;;;;19.33;7.57;;;13.90;99.90;;;;;;7405753;19;19919;-86
2022/10/22 07:46:39;;;;;;;10.70;4.45;;;14.00;99.90;;;;;;7404203;19;20344;-86
2022/10/22 07:49:11;;;;;;;17.55;7.57;;;14.20;99.90;;;;;;7403868;19;19929;-87
2022/10/22 07:51:40;;;;;;;13.05;6.03;;;14.20;99.90;;;;;;7403338;19;19925;-86
2022/10/22 07:54:08;;;;;;;9.20;4.95;;;14.10;99.90;;;;;;7404115;19;19919;-87
2022/10/22 07:56:37;;;;;;;13.75;6.70;;;14.10;99.90;;;;;;7403775;19;19925;-86
2022/10/22 07:59:06;;;;;;;13.20;7.28;;;14.20;99.90;;;;;;7402690;19;19910;-86
2022/10/22 08:01:35;;;;;;;13.25;6.32;;;14.20;99.90;;;;;;7403117;19;21744;-87
2022/10/22 08:04:07;;;;;;;8.95;5.47;;;14.20;99.90;;;;;;7403484;19;19910;-86
2022/10/22 08:06:38;;;;;;;7.28;3.35;;;14.20;99.90;;;;;;7403492;19;19929;-87
2022/10/22 08:09:07;;;;;;;10.73;4.63;;;14.20;99.90;;;;;;7403576;19;19962;-87
2022/10/22 08:11:37;;;;;;;12.05;5.70;;;14.20;99.90;;;;;;7402995;19;19937;-85
2022/10/22 08:14:06;;;;;;;10.52;5.55;;;14.30;99.90;;;;;;7405254;19;19910;-85
2022/10/22 08:16:35;;;;;;;12.07;5.68;;;14.30;99.90;;;;;;7403400;19;19926;-85
2022/10/22 08:19:04;;;;;;;8.40;3.65;;;14.30;99.90;;;;;;7404100;19;20242;-86
2022/10/22 08:21:33;;;;;;;12.45;4.50;;;14.30;99.90;;;;;;7407944;19;19937;-87
2022/10/22 08:24:06;;;;;;;8.50;2.78;;;14.30;99.90;;;;;;7403062;19;20268;-87
2022/10/22 08:26:35;;;;;;;10.20;4.95;;;14.40;99.90;;;;;;7402498;19;19926;-87
2022/10/22 08:29:03;;;;;;;8.95;4.15;;;14.50;99.90;;;;;;7401170;19;19941;-86
2022/10/22 08:31:33;;;;;;;9.55;3.58;;;14.50;99.90;;;;;;7403389;19;19925;-87
2022/10/22 08:34:02;;;;;;;13.10;6.00;;;14.60;99.90;;;;;;7403385;19;19915;-87
2022/10/22 08:36:30;;;;;;;8.05;2.55;;;14.70;99.90;;;;;;7409864;19;20285;-87
2022/10/22 08:38:59;;;;;;;9.93;5.00;;;14.70;99.90;;;;;;7409852;19;19923;-86
2022/10/22 08:41:31;;;;;;;5.82;3.35;;;14.80;99.90;;;;;;7409177;19;19978;-86
2022/10/22 08:44:36;;;;;;;11.60;4.68;;;14.80;99.90;;;;;;7408769;19;19935;-87
2022/10/22 08:47:29;;;;;;;8.63;5.15;;;14.80;99.90;;;;;;7409176;19;19914;-86
2022/10/22 08:50:00;;;;;;;6.78;4.32;;;14.90;99.90;;;;;;7408184;19;19929;-87
2022/10/22 08:52:35;;;;;;;11.77;5.30;;;14.90;99.90;;;;;;7409959;19;19918;-87
2022/10/22 08:55:05;;;;;;;9.32;4.80;;;14.90;99.90;;;;;;7413289;19;19927;-87
2022/10/22 08:57:42;;;;;;;;;;;14.90;99.90;;;;;;7398986;19;20025;-86
2022/10/22 09:00:16;;;;;;;7.13;4.13;;;14.90;99.90;;;;;;7395118;19;19941;-89
2022/10/22 09:03:01;;;;;;;11.77;4.18;;;14.90;99.90;;;;;;7407127;19;20488;-86
2022/10/22 09:05:41;;;;;;;9.70;5.38;;;14.90;99.90;;;;;;7408365;19;19993;-89
2022/10/22 09:08:13;;;;;;;9.27;4.97;;;14.90;99.90;;;;;;7409163;19;19921;-89
2022/10/22 09:10:47;;;;;;;9.90;4.28;;;15.00;99.90;;;;;;7408562;19;20411;-86
2022/10/22 09:13:21;;;;;;;12.90;4.43;;;15.10;99.90;;;;;;7406876;19;20010;-87
2022/10/22 09:15:54;;;;;;;9.20;2.90;;;15.30;99.90;;;;;;7410204;19;20216;-88
2022/10/22 09:18:36;;;;;;;7.85;3.63;;;15.40;99.90;;;;;;7407350;19;19919;-89
2022/10/22 09:21:18;;;;;;;9.30;4.28;;;15.60;99.90;;;;;;7408065;19;19978;-90
2022/10/22 09:24:00;;;;;;;8.70;2.65;;;15.90;99.90;;;;;;7408873;19;19943;-91
2022/10/22 09:26:30;;;;;;;9.27;3.13;;;16.00;99.90;;;;;;7409156;19;20260;-92
2022/10/22 09:29:02;;;;;;;7.90;3.10;;;16.20;99.90;;;;;;7407517;19;19918;-95
2022/10/22 09:31:34;;;;;;;7.45;3.10;;;16.30;99.90;;;;;;7409197;19;19918;-89
2022/10/22 09:34:06;;;;;;;7.72;2.03;;;16.40;99.90;;;;;;7408983;19;19974;-94
2022/10/22 09:36:36;;;;;;;11.15;3.33;;;16.50;99.90;;;;;;7412062;19;19922;-94
2022/10/22 09:39:05;;;;;;;3.45;1.40;;;16.60;99.90;;;;;;7407026;19;20345;-86
2022/10/22 09:41:34;;;;;;;8.05;4.13;;;16.70;99.90;;;;;;7408186;19;19925;-86
2022/10/22 09:44:09;;;;;;;7.28;1.75;;;16.80;99.90;;;;;;7407125;19;20277;-87
2022/10/22 09:46:44;;;;;;;10.90;3.38;;;16.90;99.90;;;;;;7405558;19;19930;-87
2022/10/22 09:49:16;;;;;;;5.63;2.35;;;17.00;99.90;;;;;;7407633;19;19923;-96
2022/10/22 09:51:55;;;;;;;5.22;2.70;;;17.00;99.90;;;;;;7407674;19;19915;-96
2022/10/22 09:54:26;;;;;;;5.38;2.35;;;17.00;99.90;;;;;;7408036;19;19922;-95
2022/10/22 09:56:58;;;;;;;6.63;2.97;;;17.00;99.90;;;;;;7408192;19;20264;-93
2022/10/22 09:59:32;;;;;;;5.35;1.85;;;17.10;99.90;;;;;;7406018;19;19929;-91
2022/10/22 10:02:04;;;;;;;5.30;1.38;;;17.20;99.90;;;;;;7407371;19;19925;-91
2022/10/22 10:04:37;;;;;;;4.88;2.63;;;17.20;99.90;;;;;;7406373;19;19919;-92
2022/10/22 10:07:14;;;;;;;6.22;3.33;;;17.20;99.90;;;;;;7406727;19;20348;-92
2022/10/22 10:09:43;;;;;;;6.47;2.33;;;17.30;99.90;;;;;;7406964;19;19910;-92
2022/10/22 10:12:24;;;;;;;5.75;2.25;;;17.40;99.90;;;;;;7407430;19;19911;-90
2022/10/22 10:15:07;;;;;;;6.70;2.80;;;17.60;99.90;;;;;;7404194;19;19922;-91
2022/10/22 10:17:42;;;;;;;7.95;2.63;;;17.50;99.90;;;;;;7407558;19;19978;-93
2022/10/22 10:20:25;;;;;;;4.47;1.65;;;17.50;99.90;;;;;;7410755;19;19914;-94
2022/10/22 10:23:02;;;;;;;5.57;1.42;;;17.50;99.90;;;;;;7408827;19;19921;-90
2022/10/22 10:25:43;;;;;;;6.10;2.45;;;17.50;99.90;;;;;;7406996;19;19918;-90
2022/10/22 10:28:46;;;;;;;6.10;2.30;;;17.40;99.90;;;;;;7406484;19;20341;-90
2022/10/22 10:31:27;;;;;;;4.50;1.42;;;17.30;99.90;;;;;;7409579;19;19982;-89
2022/10/22 10:34:04;;;;;;;8.55;2.67;;;17.20;99.90;;;;;;7409067;19;20344;-91
2022/10/22 10:36:39;;;;;;;5.85;2.13;;;17.20;99.90;;;;;;7407183;19;19922;-93
2022/10/22 10:39:12;;;;;;;7.35;2.65;;;17.10;99.90;;;;;;7406598;19;19917;-96
2022/10/22 10:41:52;;;;;;;7.18;2.40;;;17.10;99.90;;;;;;7406772;19;19911;-94
2022/10/22 10:44:39;;;;;;;3.85;1.50;;;17.00;99.90;;;;;;7404169;19;19953;-91
2022/10/22 10:47:27;;;;;;;7.03;2.33;;;17.00;99.90;;;;;;7406432;19;19919;-87
2022/10/22 10:50:03;;;;;;;6.75;2.33;;;17.00;99.90;;;;;;7410611;19;19919;-87
2022/10/22 10:52:41;;;;;;;25.67;5.88;;;17.00;99.90;;;;;;7405951;19;19911;-86
2022/10/22 10:55:20;;;;;;;1448.35;153.70;;;17.10;99.90;;;;;;7409928;19;19918;-85
2022/10/22 10:57:59;;;;;;;170.07;15.02;;;17.00;99.90;;;;;;7407305;19;19930;-87
2022/10/22 11:00:34;;;;;;;9.85;2.72;;;17.20;99.90;;;;;;7407503;19;20289;-83
2022/10/22 11:03:32;;;;;;;10.20;1.92;;;17.20;99.90;;;;;;7406693;19;19926;-84
2022/10/22 11:06:03;;;;;;;11.20;2.67;;;17.40;99.90;;;;;;7405224;19;19917;-85
2022/10/22 11:08:35;;;;;;;6.70;3.20;;;17.30;99.90;;;;;;7405696;19;19932;-85
2022/10/22 11:11:10;;;;;;;10.38;2.25;;;17.20;99.90;;;;;;7409545;19;19950;-84
2022/10/22 11:13:42;;;;;;;6.55;3.05;;;17.20;99.90;;;;;;7404697;19;20336;-85
2022/10/22 11:16:18;;;;;;;9.73;2.05;;;17.20;99.90;;;;;;7394985;19;20362;-85
2022/10/22 11:18:55;;;;;;;8.07;2.60;;;17.20;99.90;;;;;;7406704;19;19929;-85
2022/10/22 11:21:29;;;;;;;8.93;2.67;;;17.10;99.90;;;;;;7406195;19;20460;-86
2022/10/22 11:24:06;;;;;;;9.85;3.28;;;17.00;99.90;;;;;;7404728;19;19918;-87
2022/10/22 11:26:42;;;;;;;10.85;2.85;;;16.90;99.90;;;;;;7403356;19;20348;-86
2022/10/22 11:29:17;;;;;;;9.27;2.65;;;16.90;99.90;;;;;;7406194;19;19915;-86
2022/10/22 11:31:47;;;;;;;7.90;3.03;;;16.90;99.90;;;;;;7408124;19;19922;-86
2022/10/22 11:34:22;;;;;;;5.40;2.35;;;16.80;99.90;;;;;;7408784;19;19921;-86
2022/10/22 11:36:51;;;;;;;7.90;3.25;;;16.80;99.90;;;;;;7403327;19;19920;-87
2022/10/22 11:39:35;;;;;;;;;;;16.80;99.90;;;;;;7408617;19;20348;-86
2022/10/22 11:42:06;;;;;;;7.75;2.63;;;16.90;99.90;;;;;;7404123;19;20280;-86
2022/10/22 11:44:48;;;;;;;7.65;2.10;;;16.90;99.90;;;;;;7402496;19;19923;-85
2022/10/22 11:47:21;;;;;;;5.80;2.80;;;17.00;99.90;;;;;;7404435;19;19922;-85
2022/10/22 11:50:03;;;;;;;8.57;2.33;;;17.10;99.90;;;;;;7406022;19;19926;-86
2022/10/22 11:52:54;;;;;;;6.95;3.20;;;16.90;99.90;;;;;;7404299;19;19914;-86
2022/10/22 11:55:34;;;;;;;4.32;1.50;;;16.90;99.90;;;;;;7403885;19;19914;-86
2022/10/22 11:58:04;;;;;;;8.45;3.67;;;16.80;99.90;;;;;;7404363;19;20348;-86
2022/10/22 12:00:42;;;;;;;4.30;2.15;;;16.80;99.90;;;;;;7403043;19;19918;-85
2022/10/22 12:03:25;;;;;;;9.82;3.05;;;16.80;99.90;;;;;;7408489;19;19922;-85
2022/10/22 12:06:19;;;;;;;8.45;2.65;;;16.70;99.90;;;;;;7403949;19;19942;-85
2022/10/22 12:08:52;;;;;;;;;;;16.70;99.90;;;;;;7405847;19;19911;-86
2022/10/22 12:11:24;;;;;;;7.35;3.72;;;16.70;99.90;;;;;;7410510;19;19929;-85
2022/10/22 12:14:05;;;;;;;6.38;2.65;;;16.70;99.90;;;;;;7409654;19;19919;-86
2022/10/22 12:16:40;;;;;;;7.03;4.47;;;16.70;99.90;;;;;;7410488;19;20320;-84
2022/10/22 12:19:15;;;;;;;10.43;4.45;;;16.70;99.90;;;;;;7408928;19;19922;-85
2022/10/22 12:21:50;;;;;;;7.65;3.00;;;16.70;99.90;;;;;;7412243;19;19919;-87
2022/10/22 12:24:24;;;;;;;5.25;3.00;;;16.70;99.90;;;;;;7413363;19;20356;-87
2022/10/22 12:26:53;;;;;;;9.10;4.28;;;16.80;99.90;;;;;;7412750;19;19937;-86
2022/10/22 12:29:25;;;;;;;7.13;2.55;;;16.90;99.90;;;;;;7411672;19;19936;-86
2022/10/22 12:31:55;;;;;;;17.73;4.28;;;17.00;99.90;;;;;;7412412;19;19927;-88
2022/10/22 12:34:28;;;;;;;6.28;3.35;;;16.90;99.90;;;;;;7409940;19;19982;-88
2022/10/22 12:36:59;;;;;;;7.35;2.80;;;16.80;99.90;;;;;;7412126;19;20281;-87
2022/10/22 12:39:28;;;;;;;4.15;1.45;;;16.80;99.90;;;;;;7411974;19;20272;-87
2022/10/22 12:41:57;;;;;;;4.25;2.05;;;17.00;99.90;;;;;;7409494;19;19914;-88
2022/10/22 12:44:26;;;;;;;6.97;2.75;;;17.10;99.90;;;;;;7410952;19;19945;-87
2022/10/22 12:46:56;;;;;;;9.82;4.28;;;17.00;99.90;;;;;;7409158;19;19914;-86
2022/10/22 12:49:37;;;;;;;7.55;2.33;;;17.00;99.90;;;;;;7408719;19;19918;-85
2022/10/22 12:52:16;;;;;;;3.53;1.33;;;17.00;99.90;;;;;;7410534;19;19918;-88
2022/10/22 12:54:48;;;;;;;5.32;1.88;;;16.90;99.90;;;;;;7406393;19;19919;-87
2022/10/22 12:57:20;;;;;;;5.90;3.53;;;17.00;99.90;;;;;;7412099;19;19918;-86
2022/10/22 12:59:51;;;;;;;6.13;2.00;;;17.00;99.90;;;;;;7408237;19;20344;-87
2022/10/22 13:02:23;;;;;;;6.93;4.25;;;16.90;99.90;;;;;;7412765;19;19918;-87
2022/10/22 13:05:27;;;;;;;8.82;3.88;;;16.80;99.90;;;;;;7409478;19;19925;-88
2022/10/22 13:08:05;;;;;;;7.05;4.22;;;16.70;99.90;;;;;;7408340;19;19942;-88